Las Vegas, Nevada
Traffic Map
Current Weather Conditions
Las Vegas, Nevada
Few Clouds
Few Clouds
88°
Feels Like: 88°
Wind Chill: 88° Ceiling: Unl
Heat Index: 88° Visibility: 10mi
Dew Point: 25° Wind: 5mph
Humidity: 10% Direction: 230° (SW)
Pressure: 29.7in Gusts: 0mph
Raw Report DataKLAS 280156Z 23004KT 10SM FEW120 31/M04 A2970 RMK AO2 SLP035 T03111039
Traffic Incident Summary
Active as of:
Severity:
Category:
InformationThere was an issue retrieving the traffic information for this location. Please try a different location or try again shortly.
Advertisements
Track Severe Weather on mobile